sensor_id;sensor_type;location;lat;lon;timestamp;pressure;altitude;pressure_sealevel;temperature
68510;BMP180;55512;50.102;19.958;2023-08-21T00:01:08;99320.80;;;24.50
68510;BMP180;55512;50.102;19.958;2023-08-21T00:03:34;99311.20;;;24.40
68510;BMP180;55512;50.102;19.958;2023-08-21T00:05:59;99310.00;;;24.30
68510;BMP180;55512;50.102;19.958;2023-08-21T00:08:24;99310.80;;;24.28
68510;BMP180;55512;50.102;19.958;2023-08-21T00:10:50;99304.40;;;24.20
68510;BMP180;55512;50.102;19.958;2023-08-21T00:13:15;99302.60;;;24.10
68510;BMP180;55512;50.102;19.958;2023-08-21T00:15:41;99307.00;;;23.96
68510;BMP180;55512;50.102;19.958;2023-08-21T00:18:06;99301.80;;;23.90
68510;BMP180;55512;50.102;19.958;2023-08-21T00:20:32;99306.00;;;23.80
68510;BMP180;55512;50.102;19.958;2023-08-21T00:22:57;99305.40;;;23.80
68510;BMP180;55512;50.102;19.958;2023-08-21T00:25:23;99306.00;;;23.70
68510;BMP180;55512;50.102;19.958;2023-08-21T00:27:49;99308.20;;;23.60
68510;BMP180;55512;50.102;19.958;2023-08-21T00:30:14;99306.20;;;23.60
68510;BMP180;55512;50.102;19.958;2023-08-21T00:32:41;99310.20;;;23.60
68510;BMP180;55512;50.102;19.958;2023-08-21T00:35:07;99305.20;;;23.60
68510;BMP180;55512;50.102;19.958;2023-08-21T00:37:33;99307.20;;;23.60
68510;BMP180;55512;50.102;19.958;2023-08-21T00:39:58;99303.60;;;23.60
68510;BMP180;55512;50.102;19.958;2023-08-21T00:42:24;99302.20;;;23.60
68510;BMP180;55512;50.102;19.958;2023-08-21T00:44:49;99306.00;;;23.60
68510;BMP180;55512;50.102;19.958;2023-08-21T00:47:15;99300.40;;;23.52
68510;BMP180;55512;50.102;19.958;2023-08-21T00:49:42;99303.80;;;23.54
68510;BMP180;55512;50.102;19.958;2023-08-21T00:52:11;99300.40;;;23.60
68510;BMP180;55512;50.102;19.958;2023-08-21T00:54:37;99294.00;;;23.60
68510;BMP180;55512;50.102;19.958;2023-08-21T00:57:04;99290.60;;;23.60
68510;BMP180;55512;50.102;19.958;2023-08-21T00:59:30;99285.60;;;23.60
68510;BMP180;55512;50.102;19.958;2023-08-21T01:01:56;99283.20;;;23.60
68510;BMP180;55512;50.102;19.958;2023-08-21T01:04:21;99288.00;;;23.68
68510;BMP180;55512;50.102;19.958;2023-08-21T01:06:49;99291.20;;;23.68
68510;BMP180;55512;50.102;19.958;2023-08-21T01:09:31;99295.00;;;23.66
68510;BMP180;55512;50.102;19.958;2023-08-21T01:12:25;99295.80;;;23.60
68510;BMP180;55512;50.102;19.958;2023-08-21T01:15:04;99297.20;;;23.60
68510;BMP180;55512;50.102;19.958;2023-08-21T01:17:34;99299.80;;;23.56
68510;BMP180;55512;50.102;19.958;2023-08-21T01:20:02;99293.80;;;23.50
68510;BMP180;55512;50.102;19.958;2023-08-21T01:22:42;99289.00;;;23.50
68510;BMP180;55512;50.102;19.958;2023-08-21T01:25:12;99290.20;;;23.50
68510;BMP180;55512;50.102;19.958;2023-08-21T01:27:48;99294.40;;;23.50
68510;BMP180;55512;50.102;19.958;2023-08-21T01:30:14;99293.60;;;23.50
68510;BMP180;55512;50.102;19.958;2023-08-21T01:33:08;99298.00;;;23.50
68510;BMP180;55512;50.102;19.958;2023-08-21T01:35:36;99297.00;;;23.46
68510;BMP180;55512;50.102;19.958;2023-08-21T01:38:05;99303.60;;;23.40
68510;BMP180;55512;50.102;19.958;2023-08-21T01:40:31;99289.60;;;23.30
68510;BMP180;55512;50.102;19.958;2023-08-21T01:42:56;99287.20;;;23.20
68510;BMP180;55512;50.102;19.958;2023-08-21T01:45:22;99286.40;;;23.20
68510;BMP180;55512;50.102;19.958;2023-08-21T01:47:48;99281.80;;;23.20
68510;BMP180;55512;50.102;19.958;2023-08-21T01:50:13;99281.40;;;23.20
68510;BMP180;55512;50.102;19.958;2023-08-21T01:52:39;99282.00;;;23.20
68510;BMP180;55512;50.102;19.958;2023-08-21T01:55:05;99281.40;;;23.20
68510;BMP180;55512;50.102;19.958;2023-08-21T01:57:33;99287.20;;;23.20
68510;BMP180;55512;50.102;19.958;2023-08-21T01:59:59;99290.80;;;23.10
68510;BMP180;55512;50.102;19.958;2023-08-21T02:02:24;99290.60;;;23.10
68510;BMP180;55512;50.102;19.958;2023-08-21T02:04:49;99296.60;;;23.00
68510;BMP180;55512;50.102;19.958;2023-08-21T02:07:15;99290.80;;;22.90
68510;BMP180;55512;50.102;19.958;2023-08-21T02:09:40;99290.60;;;22.80
68510;BMP180;55512;50.102;19.958;2023-08-21T02:12:06;99286.20;;;22.72
68510;BMP180;55512;50.102;19.958;2023-08-21T02:14:31;99286.40;;;22.70
68510;BMP180;55512;50.102;19.958;2023-08-21T02:16:57;99284.00;;;22.70
68510;BMP180;55512;50.102;19.958;2023-08-21T02:19:22;99279.80;;;22.70
68510;BMP180;55512;50.102;19.958;2023-08-21T02:21:48;99281.00;;;22.70
68510;BMP180;55512;50.102;19.958;2023-08-21T02:24:13;99283.20;;;22.70
68510;BMP180;55512;50.102;19.958;2023-08-21T02:26:39;99284.80;;;22.70
68510;BMP180;55512;50.102;19.958;2023-08-21T02:29:04;99279.80;;;22.62
68510;BMP180;55512;50.102;19.958;2023-08-21T02:31:30;99281.60;;;22.60
68510;BMP180;55512;50.102;19.958;2023-08-21T02:33:55;99279.80;;;22.60
68510;BMP180;55512;50.102;19.958;2023-08-21T02:36:20;99278.60;;;22.60
68510;BMP180;55512;50.102;19.958;2023-08-21T02:38:46;99278.60;;;22.50
68510;BMP180;55512;50.102;19.958;2023-08-21T02:41:11;99276.20;;;22.50
68510;BMP180;55512;50.102;19.958;2023-08-21T02:43:37;99274.00;;;22.40
68510;BMP180;55512;50.102;19.958;2023-08-21T02:46:02;99280.60;;;22.40
68510;BMP180;55512;50.102;19.958;2023-08-21T02:48:27;99277.20;;;22.30
68510;BMP180;55512;50.102;19.958;2023-08-21T02:50:53;99276.40;;;22.30
68510;BMP180;55512;50.102;19.958;2023-08-21T02:53:19;99273.20;;;22.30
68510;BMP180;55512;50.102;19.958;2023-08-21T02:55:44;99273.20;;;22.30
68510;BMP180;55512;50.102;19.958;2023-08-21T02:58:09;99269.80;;;22.20
68510;BMP180;55512;50.102;19.958;2023-08-21T03:00:35;99266.20;;;22.20
68510;BMP180;55512;50.102;19.958;2023-08-21T03:03:00;99270.00;;;22.20
68510;BMP180;55512;50.102;19.958;2023-08-21T03:05:26;99269.00;;;22.10
68510;BMP180;55512;50.102;19.958;2023-08-21T03:07:51;99270.40;;;22.10
68510;BMP180;55512;50.102;19.958;2023-08-21T03:10:18;99263.40;;;22.10
68510;BMP180;55512;50.102;19.958;2023-08-21T03:12:44;99264.00;;;22.10
68510;BMP180;55512;50.102;19.958;2023-08-21T03:15:09;99264.20;;;22.10
68510;BMP180;55512;50.102;19.958;2023-08-21T03:17:35;99256.80;;;22.10
68510;BMP180;55512;50.102;19.958;2023-08-21T03:20:01;99258.60;;;22.12
68510;BMP180;55512;50.102;19.958;2023-08-21T03:22:29;99260.60;;;22.10
68510;BMP180;55512;50.102;19.958;2023-08-21T03:24:56;99259.20;;;22.10
68510;BMP180;55512;50.102;19.958;2023-08-21T03:27:22;99260.40;;;22.10
68510;BMP180;55512;50.102;19.958;2023-08-21T03:29:48;99268.60;;;22.00
68510;BMP180;55512;50.102;19.958;2023-08-21T03:32:17;99269.40;;;22.00
68510;BMP180;55512;50.102;19.958;2023-08-21T03:34:44;99265.80;;;21.94
68510;BMP180;55512;50.102;19.958;2023-08-21T03:37:10;99268.80;;;21.90
68510;BMP180;55512;50.102;19.958;2023-08-21T03:39:36;99263.60;;;21.90
68510;BMP180;55512;50.102;19.958;2023-08-21T03:42:01;99271.00;;;21.90
68510;BMP180;55512;50.102;19.958;2023-08-21T03:44:27;99267.80;;;21.90
68510;BMP180;55512;50.102;19.958;2023-08-21T03:46:52;99263.60;;;21.90
68510;BMP180;55512;50.102;19.958;2023-08-21T03:49:18;99264.80;;;21.90
68510;BMP180;55512;50.102;19.958;2023-08-21T03:51:43;99264.60;;;21.90
68510;BMP180;55512;50.102;19.958;2023-08-21T03:54:09;99264.80;;;21.90
68510;BMP180;55512;50.102;19.958;2023-08-21T03:56:36;99262.20;;;21.90
68510;BMP180;55512;50.102;19.958;2023-08-21T03:59:01;99255.40;;;21.90
68510;BMP180;55512;50.102;19.958;2023-08-21T04:01:26;99258.40;;;21.90
68510;BMP180;55512;50.102;19.958;2023-08-21T04:03:52;99256.80;;;21.98
68510;BMP180;55512;50.102;19.958;2023-08-21T04:06:17;99260.20;;;22.00
68510;BMP180;55512;50.102;19.958;2023-08-21T04:08:43;99261.40;;;22.00
68510;BMP180;55512;50.102;19.958;2023-08-21T04:11:09;99261.80;;;22.00
68510;BMP180;55512;50.102;19.958;2023-08-21T04:13:34;99267.40;;;22.00
68510;BMP180;55512;50.102;19.958;2023-08-21T04:16:00;99266.80;;;21.90
68510;BMP180;55512;50.102;19.958;2023-08-21T04:18:25;99271.40;;;21.90
68510;BMP180;55512;50.102;19.958;2023-08-21T04:20:50;99271.80;;;21.90
68510;BMP180;55512;50.102;19.958;2023-08-21T04:23:16;99271.40;;;21.90
68510;BMP180;55512;50.102;19.958;2023-08-21T04:25:41;99274.80;;;21.90
68510;BMP180;55512;50.102;19.958;2023-08-21T04:28:08;99275.00;;;21.90
68510;BMP180;55512;50.102;19.958;2023-08-21T04:30:34;99277.40;;;21.80
68510;BMP180;55512;50.102;19.958;2023-08-21T04:33:00;99275.80;;;21.80
68510;BMP180;55512;50.102;19.958;2023-08-21T04:35:26;99270.60;;;21.80
68510;BMP180;55512;50.102;19.958;2023-08-21T04:37:51;99270.40;;;21.80
68510;BMP180;55512;50.102;19.958;2023-08-21T04:40:17;99270.20;;;21.80
68510;BMP180;55512;50.102;19.958;2023-08-21T04:42:45;99265.00;;;21.80
68510;BMP180;55512;50.102;19.958;2023-08-21T04:45:11;99266.20;;;21.82
68510;BMP180;55512;50.102;19.958;2023-08-21T04:47:36;99272.20;;;21.86
68510;BMP180;55512;50.102;19.958;2023-08-21T04:50:02;99268.60;;;21.90
68510;BMP180;55512;50.102;19.958;2023-08-21T04:52:27;99263.20;;;22.00
68510;BMP180;55512;50.102;19.958;2023-08-21T04:54:53;99268.20;;;22.10
68510;BMP180;55512;50.102;19.958;2023-08-21T04:57:19;99266.40;;;22.10
68510;BMP180;55512;50.102;19.958;2023-08-21T04:59:46;99264.80;;;22.16
68510;BMP180;55512;50.102;19.958;2023-08-21T05:02:12;99260.00;;;22.20
68510;BMP180;55512;50.102;19.958;2023-08-21T05:04:37;99267.00;;;22.30
68510;BMP180;55512;50.102;19.958;2023-08-21T05:07:04;99268.00;;;22.40
68510;BMP180;55512;50.102;19.958;2023-08-21T05:09:30;99267.80;;;22.50
68510;BMP180;55512;50.102;19.958;2023-08-21T05:11:56;99273.00;;;22.60
68510;BMP180;55512;50.102;19.958;2023-08-21T05:14:22;99278.20;;;22.70
68510;BMP180;55512;50.102;19.958;2023-08-21T05:16:51;99282.60;;;22.80
68510;BMP180;55512;50.102;19.958;2023-08-21T05:19:17;99285.60;;;22.80
68510;BMP180;55512;50.102;19.958;2023-08-21T05:21:43;99285.40;;;22.84
68510;BMP180;55512;50.102;19.958;2023-08-21T05:24:09;99283.60;;;22.90
68510;BMP180;55512;50.102;19.958;2023-08-21T05:26:38;99284.60;;;23.00
68510;BMP180;55512;50.102;19.958;2023-08-21T05:29:04;99281.40;;;23.02
68510;BMP180;55512;50.102;19.958;2023-08-21T05:31:29;99278.40;;;23.10
68510;BMP180;55512;50.102;19.958;2023-08-21T05:33:55;99277.20;;;23.20
68510;BMP180;55512;50.102;19.958;2023-08-21T05:36:20;99273.00;;;23.30
68510;BMP180;55512;50.102;19.958;2023-08-21T05:38:46;99269.60;;;23.40
68510;BMP180;55512;50.102;19.958;2023-08-21T05:41:13;99266.60;;;23.50
68510;BMP180;55512;50.102;19.958;2023-08-21T05:43:39;99265.80;;;23.60
68510;BMP180;55512;50.102;19.958;2023-08-21T05:46:07;99270.00;;;23.70
68510;BMP180;55512;50.102;19.958;2023-08-21T05:48:33;99278.60;;;23.82
68510;BMP180;55512;50.102;19.958;2023-08-21T05:50:58;99282.20;;;23.94
68510;BMP180;55512;50.102;19.958;2023-08-21T05:53:23;99287.60;;;24.10
68510;BMP180;55512;50.102;19.958;2023-08-21T05:55:49;99291.40;;;24.20
68510;BMP180;55512;50.102;19.958;2023-08-21T05:58:14;99290.80;;;24.30
68510;BMP180;55512;50.102;19.958;2023-08-21T06:00:40;99294.00;;;24.40
68510;BMP180;55512;50.102;19.958;2023-08-21T06:03:05;99294.20;;;24.50
68510;BMP180;55512;50.102;19.958;2023-08-21T06:05:31;99285.40;;;24.60
68510;BMP180;55512;50.102;19.958;2023-08-21T06:07:56;99288.40;;;24.70
68510;BMP180;55512;50.102;19.958;2023-08-21T06:10:22;99286.20;;;24.80
68510;BMP180;55512;50.102;19.958;2023-08-21T06:12:48;99290.00;;;24.98
68510;BMP180;55512;50.102;19.958;2023-08-21T06:15:13;99292.60;;;25.10
68510;BMP180;55512;50.102;19.958;2023-08-21T06:17:39;99292.00;;;25.20
68510;BMP180;55512;50.102;19.958;2023-08-21T06:20:06;99294.40;;;25.40
68510;BMP180;55512;50.102;19.958;2023-08-21T06:22:37;99295.40;;;25.50
68510;BMP180;55512;50.102;19.958;2023-08-21T06:25:04;99292.40;;;25.60
68510;BMP180;55512;50.102;19.958;2023-08-21T06:27:30;99289.40;;;25.70
68510;BMP180;55512;50.102;19.958;2023-08-21T06:29:55;99287.00;;;25.80
68510;BMP180;55512;50.102;19.958;2023-08-21T06:32:21;99292.80;;;25.98
68510;BMP180;55512;50.102;19.958;2023-08-21T06:34:46;99298.40;;;26.10
68510;BMP180;55512;50.102;19.958;2023-08-21T06:37:12;99296.80;;;26.20
68510;BMP180;55512;50.102;19.958;2023-08-21T06:39:40;99298.40;;;26.40
68510;BMP180;55512;50.102;19.958;2023-08-21T06:42:06;99301.40;;;26.50
68510;BMP180;55512;50.102;19.958;2023-08-21T06:44:31;99302.20;;;26.68
68510;BMP180;55512;50.102;19.958;2023-08-21T06:46:57;99306.80;;;26.80
68510;BMP180;55512;50.102;19.958;2023-08-21T06:49:22;99306.80;;;26.90
68510;BMP180;55512;50.102;19.958;2023-08-21T06:51:49;99308.80;;;27.00
68510;BMP180;55512;50.102;19.958;2023-08-21T06:54:14;99310.60;;;27.14
68510;BMP180;55512;50.102;19.958;2023-08-21T06:56:40;99311.40;;;27.20
68510;BMP180;55512;50.102;19.958;2023-08-21T06:59:05;99310.80;;;27.30
68510;BMP180;55512;50.102;19.958;2023-08-21T07:01:30;99321.40;;;27.40
68510;BMP180;55512;50.102;19.958;2023-08-21T07:03:56;99322.00;;;27.50
68510;BMP180;55512;50.102;19.958;2023-08-21T07:06:21;99326.60;;;27.50
68510;BMP180;55512;50.102;19.958;2023-08-21T07:08:47;99325.00;;;27.50
68510;BMP180;55512;50.102;19.958;2023-08-21T07:11:12;99326.40;;;27.50
68510;BMP180;55512;50.102;19.958;2023-08-21T07:13:38;99326.20;;;27.50
68510;BMP180;55512;50.102;19.958;2023-08-21T07:16:05;99330.40;;;27.50
68510;BMP180;55512;50.102;19.958;2023-08-21T07:18:35;99330.20;;;27.54
68510;BMP180;55512;50.102;19.958;2023-08-21T07:21:04;99332.20;;;27.60
68510;BMP180;55512;50.102;19.958;2023-08-21T07:23:31;99328.00;;;27.70
68510;BMP180;55512;50.102;19.958;2023-08-21T07:25:58;99327.80;;;27.70
68510;BMP180;55512;50.102;19.958;2023-08-21T07:28:24;99327.40;;;27.70
68510;BMP180;55512;50.102;19.958;2023-08-21T07:30:57;99325.80;;;27.76
68510;BMP180;55512;50.102;19.958;2023-08-21T07:33:25;99326.60;;;27.80
68510;BMP180;55512;50.102;19.958;2023-08-21T07:35:58;99326.60;;;27.80
68510;BMP180;55512;50.102;19.958;2023-08-21T07:38:24;99328.60;;;27.80
68510;BMP180;55512;50.102;19.958;2023-08-21T07:40:49;99331.60;;;27.80
68510;BMP180;55512;50.102;19.958;2023-08-21T07:43:15;99328.40;;;27.72
68510;BMP180;55512;50.102;19.958;2023-08-21T07:45:40;99325.00;;;27.80
68510;BMP180;55512;50.102;19.958;2023-08-21T07:48:06;99330.40;;;27.80
68510;BMP180;55512;50.102;19.958;2023-08-21T07:50:31;99335.80;;;27.80
68510;BMP180;55512;50.102;19.958;2023-08-21T07:52:56;99333.40;;;27.80
68510;BMP180;55512;50.102;19.958;2023-08-21T07:55:22;99336.60;;;27.88
68510;BMP180;55512;50.102;19.958;2023-08-21T07:57:47;99338.80;;;28.00
68510;BMP180;55512;50.102;19.958;2023-08-21T08:00:13;99344.00;;;28.10
68510;BMP180;55512;50.102;19.958;2023-08-21T08:02:39;99352.40;;;28.20
68510;BMP180;55512;50.102;19.958;2023-08-21T08:05:06;99357.40;;;28.30
68510;BMP180;55512;50.102;19.958;2023-08-21T08:07:31;99359.80;;;28.40
68510;BMP180;55512;50.102;19.958;2023-08-21T08:09:57;99373.00;;;28.50
68510;BMP180;55512;50.102;19.958;2023-08-21T08:12:22;99378.00;;;28.50
68510;BMP180;55512;50.102;19.958;2023-08-21T08:14:47;99380.40;;;28.52
68510;BMP180;55512;50.102;19.958;2023-08-21T08:17:13;99387.20;;;28.60
68510;BMP180;55512;50.102;19.958;2023-08-21T08:19:38;99388.20;;;28.70
68510;BMP180;55512;50.102;19.958;2023-08-21T08:22:04;99383.00;;;28.80
68510;BMP180;55512;50.102;19.958;2023-08-21T08:24:29;99401.00;;;28.80
68510;BMP180;55512;50.102;19.958;2023-08-21T08:26:55;99378.80;;;28.80
68510;BMP180;55512;50.102;19.958;2023-08-21T08:29:20;99387.00;;;28.80
68510;BMP180;55512;50.102;19.958;2023-08-21T08:31:46;99387.80;;;28.80
68510;BMP180;55512;50.102;19.958;2023-08-21T08:34:11;99381.00;;;28.80
68510;BMP180;55512;50.102;19.958;2023-08-21T08:36:37;99388.80;;;28.82
68510;BMP180;55512;50.102;19.958;2023-08-21T08:39:02;99395.80;;;28.90
68510;BMP180;55512;50.102;19.958;2023-08-21T08:41:39;99396.60;;;28.90
68510;BMP180;55512;50.102;19.958;2023-08-21T08:44:09;99399.40;;;28.60
68510;BMP180;55512;50.102;19.958;2023-08-21T08:46:35;99400.40;;;28.40
68510;BMP180;55512;50.102;19.958;2023-08-21T08:49:03;99400.40;;;28.40
68510;BMP180;55512;50.102;19.958;2023-08-21T08:51:31;99398.80;;;28.40
68510;BMP180;55512;50.102;19.958;2023-08-21T08:53:59;99393.40;;;28.20
68510;BMP180;55512;50.102;19.958;2023-08-21T08:56:25;99398.40;;;28.20
68510;BMP180;55512;50.102;19.958;2023-08-21T08:58:51;99400.60;;;28.20
68510;BMP180;55512;50.102;19.958;2023-08-21T09:01:17;99402.20;;;28.10
68510;BMP180;55512;50.102;19.958;2023-08-21T09:03:42;99404.60;;;28.00
68510;BMP180;55512;50.102;19.958;2023-08-21T09:06:08;99404.60;;;28.00
68510;BMP180;55512;50.102;19.958;2023-08-21T09:08:34;99400.20;;;27.80
68510;BMP180;55512;50.102;19.958;2023-08-21T09:11:03;99399.20;;;27.70
68510;BMP180;55512;50.102;19.958;2023-08-21T09:13:31;99400.80;;;27.70
68510;BMP180;55512;50.102;19.958;2023-08-21T09:15:58;99399.40;;;27.60
68510;BMP180;55512;50.102;19.958;2023-08-21T09:18:23;99395.20;;;27.60
68510;BMP180;55512;50.102;19.958;2023-08-21T09:20:49;99395.20;;;27.60
68510;BMP180;55512;50.102;19.958;2023-08-21T09:23:16;99394.00;;;27.66
68510;BMP180;55512;50.102;19.958;2023-08-21T09:25:45;99393.80;;;27.64
68510;BMP180;55512;50.102;19.958;2023-08-21T09:28:18;99390.20;;;27.60
68510;BMP180;55512;50.102;19.958;2023-08-21T09:30:54;99390.00;;;27.60
68510;BMP180;55512;50.102;19.958;2023-08-21T09:33:24;99390.60;;;27.50
68510;BMP180;55512;50.102;19.958;2023-08-21T09:35:54;99389.00;;;27.60
68510;BMP180;55512;50.102;19.958;2023-08-21T09:38:20;99388.20;;;27.78
68510;BMP180;55512;50.102;19.958;2023-08-21T09:40:55;99385.40;;;27.90
68510;BMP180;55512;50.102;19.958;2023-08-21T09:43:25;99379.00;;;28.00
68510;BMP180;55512;50.102;19.958;2023-08-21T09:45:54;99377.60;;;28.08
68510;BMP180;55512;50.102;19.958;2023-08-21T09:48:25;99377.00;;;28.20
68510;BMP180;55512;50.102;19.958;2023-08-21T09:50:55;99377.80;;;28.30
68510;BMP180;55512;50.102;19.958;2023-08-21T09:53:22;99376.80;;;28.48
68510;BMP180;55512;50.102;19.958;2023-08-21T09:55:53;99374.60;;;28.60
68510;BMP180;55512;50.102;19.958;2023-08-21T09:58:20;99375.40;;;28.72
68510;BMP180;55512;50.102;19.958;2023-08-21T10:00:49;99379.20;;;28.90
68510;BMP180;55512;50.102;19.958;2023-08-21T10:03:20;99378.00;;;29.00
68510;BMP180;55512;50.102;19.958;2023-08-21T10:05:47;99379.40;;;29.10
68510;BMP180;55512;50.102;19.958;2023-08-21T10:08:21;99375.40;;;29.20
68510;BMP180;55512;50.102;19.958;2023-08-21T10:10:48;99374.00;;;29.20
68510;BMP180;55512;50.102;19.958;2023-08-21T10:13:14;99377.40;;;29.30
68510;BMP180;55512;50.102;19.958;2023-08-21T10:15:41;99365.00;;;29.40
68510;BMP180;55512;50.102;19.958;2023-08-21T10:18:29;99369.60;;;29.50
68510;BMP180;55512;50.102;19.958;2023-08-21T10:20:54;99363.40;;;29.70
68510;BMP180;55512;50.102;19.958;2023-08-21T10:23:29;99362.60;;;29.78
68510;BMP180;55512;50.102;19.958;2023-08-21T10:26:00;99360.20;;;29.90
68510;BMP180;55512;50.102;19.958;2023-08-21T10:31:32;99349.20;;;30.10
68510;BMP180;55512;50.102;19.958;2023-08-21T10:34:01;99350.40;;;30.20
68510;BMP180;55512;50.102;19.958;2023-08-21T10:39:21;99351.60;;;30.30
68510;BMP180;55512;50.102;19.958;2023-08-21T10:41:58;99352.60;;;30.40
68510;BMP180;55512;50.102;19.958;2023-08-21T10:44:47;99345.00;;;30.34
68510;BMP180;55512;50.102;19.958;2023-08-21T10:47:30;99341.80;;;30.34
68510;BMP180;55512;50.102;19.958;2023-08-21T10:50:05;99339.40;;;30.40
68510;BMP180;55512;50.102;19.958;2023-08-21T10:52:42;99344.00;;;30.50
68510;BMP180;55512;50.102;19.958;2023-08-21T10:55:12;99340.00;;;30.60
68510;BMP180;55512;50.102;19.958;2023-08-21T10:57:39;99338.40;;;30.70
68510;BMP180;55512;50.102;19.958;2023-08-21T11:00:07;99339.60;;;30.80
68510;BMP180;55512;50.102;19.958;2023-08-21T11:02:39;99339.40;;;30.90
68510;BMP180;55512;50.102;19.958;2023-08-21T11:05:07;99337.20;;;31.00
68510;BMP180;55512;50.102;19.958;2023-08-21T11:07:47;99341.80;;;31.00
68510;BMP180;55512;50.102;19.958;2023-08-21T11:10:27;99341.20;;;31.10
68510;BMP180;55512;50.102;19.958;2023-08-21T11:12:55;99337.80;;;31.20
68510;BMP180;55512;50.102;19.958;2023-08-21T11:15:21;99337.60;;;31.30
68510;BMP180;55512;50.102;19.958;2023-08-21T11:17:58;99337.00;;;31.40
68510;BMP180;55512;50.102;19.958;2023-08-21T11:20:33;99334.60;;;31.52
68510;BMP180;55512;50.102;19.958;2023-08-21T11:23:00;99335.40;;;31.70
68510;BMP180;55512;50.102;19.958;2023-08-21T11:25:32;99329.20;;;31.70
68510;BMP180;55512;50.102;19.958;2023-08-21T11:27:58;99329.40;;;31.80
68510;BMP180;55512;50.102;19.958;2023-08-21T11:30:24;99337.40;;;31.96
68510;BMP180;55512;50.102;19.958;2023-08-21T11:33:11;99330.40;;;32.00
68510;BMP180;55512;50.102;19.958;2023-08-21T11:35:38;99327.60;;;32.08
68510;BMP180;55512;50.102;19.958;2023-08-21T11:38:04;99326.20;;;32.10
68510;BMP180;55512;50.102;19.958;2023-08-21T11:40:34;99324.20;;;32.18
68510;BMP180;55512;50.102;19.958;2023-08-21T11:43:01;99325.80;;;32.30
68510;BMP180;55512;50.102;19.958;2023-08-21T11:45:30;99323.60;;;32.52
68510;BMP180;55512;50.102;19.958;2023-08-21T11:47:56;99324.00;;;32.70
68510;BMP180;55512;50.102;19.958;2023-08-21T11:50:22;99316.40;;;32.80
68510;BMP180;55512;50.102;19.958;2023-08-21T11:52:52;99312.80;;;32.98
68510;BMP180;55512;50.102;19.958;2023-08-21T11:55:18;99312.60;;;33.20
68510;BMP180;55512;50.102;19.958;2023-08-21T11:57:48;99303.60;;;33.40
68510;BMP180;55512;50.102;19.958;2023-08-21T12:00:15;99307.80;;;33.60
68510;BMP180;55512;50.102;19.958;2023-08-21T12:02:58;99305.40;;;33.76
68510;BMP180;55512;50.102;19.958;2023-08-21T12:05:25;99298.60;;;33.92
68510;BMP180;55512;50.102;19.958;2023-08-21T12:07:51;99302.40;;;34.06
68510;BMP180;55512;50.102;19.958;2023-08-21T12:10:27;99307.20;;;34.10
68510;BMP180;55512;50.102;19.958;2023-08-21T12:12:53;99303.80;;;34.20
68510;BMP180;55512;50.102;19.958;2023-08-21T12:15:19;99305.20;;;34.20
68510;BMP180;55512;50.102;19.958;2023-08-21T12:17:45;99309.20;;;34.14
68510;BMP180;55512;50.102;19.958;2023-08-21T12:20:11;99310.80;;;34.10
68510;BMP180;55512;50.102;19.958;2023-08-21T12:22:40;99309.60;;;34.10
68510;BMP180;55512;50.102;19.958;2023-08-21T12:25:08;99307.40;;;34.02
68510;BMP180;55512;50.102;19.958;2023-08-21T12:27:34;99302.40;;;34.00
68510;BMP180;55512;50.102;19.958;2023-08-21T12:30:00;99299.60;;;33.92
68510;BMP180;55512;50.102;19.958;2023-08-21T12:32:25;99300.60;;;33.90
68510;BMP180;55512;50.102;19.958;2023-08-21T12:34:50;99298.60;;;33.80
68510;BMP180;55512;50.102;19.958;2023-08-21T12:37:17;99296.80;;;33.78
68510;BMP180;55512;50.102;19.958;2023-08-21T12:39:43;99297.00;;;33.70
68510;BMP180;55512;50.102;19.958;2023-08-21T12:42:08;99300.60;;;33.64
68510;BMP180;55512;50.102;19.958;2023-08-21T12:44:34;99292.80;;;33.60
68510;BMP180;55512;50.102;19.958;2023-08-21T12:47:00;99289.00;;;33.54
68510;BMP180;55512;50.102;19.958;2023-08-21T12:49:26;99288.60;;;33.50
68510;BMP180;55512;50.102;19.958;2023-08-21T12:51:51;99292.00;;;33.40
68510;BMP180;55512;50.102;19.958;2023-08-21T12:54:17;99289.20;;;33.34
68510;BMP180;55512;50.102;19.958;2023-08-21T12:56:42;99287.80;;;33.30
68510;BMP180;55512;50.102;19.958;2023-08-21T12:59:08;99288.40;;;33.20
68510;BMP180;55512;50.102;19.958;2023-08-21T13:01:33;99288.00;;;33.20
68510;BMP180;55512;50.102;19.958;2023-08-21T13:04:00;99287.60;;;33.10
68510;BMP180;55512;50.102;19.958;2023-08-21T13:06:26;99290.80;;;33.10
68510;BMP180;55512;50.102;19.958;2023-08-21T13:08:52;99288.20;;;33.14
68510;BMP180;55512;50.102;19.958;2023-08-21T13:11:17;99288.00;;;33.20
68510;BMP180;55512;50.102;19.958;2023-08-21T13:13:43;99289.00;;;33.32
68510;BMP180;55512;50.102;19.958;2023-08-21T13:16:08;99288.40;;;33.50
68510;BMP180;55512;50.102;19.958;2023-08-21T13:18:34;99284.80;;;33.60
68510;BMP180;55512;50.102;19.958;2023-08-21T13:20:59;99280.00;;;33.70
68510;BMP180;55512;50.102;19.958;2023-08-21T13:23:25;99281.80;;;33.90
68510;BMP180;55512;50.102;19.958;2023-08-21T13:25:50;99280.60;;;34.00
68510;BMP180;55512;50.102;19.958;2023-08-21T13:28:16;99274.80;;;34.10
68510;BMP180;55512;50.102;19.958;2023-08-21T13:30:41;99278.60;;;34.10
68510;BMP180;55512;50.102;19.958;2023-08-21T13:33:07;99275.40;;;34.10
68510;BMP180;55512;50.102;19.958;2023-08-21T13:35:32;99270.60;;;34.10
68510;BMP180;55512;50.102;19.958;2023-08-21T13:37:58;99265.60;;;34.12
68510;BMP180;55512;50.102;19.958;2023-08-21T13:40:24;99264.40;;;34.10
68510;BMP180;55512;50.102;19.958;2023-08-21T13:42:50;99261.20;;;34.20
68510;BMP180;55512;50.102;19.958;2023-08-21T13:45:18;99259.80;;;34.40
68510;BMP180;55512;50.102;19.958;2023-08-21T13:47:47;99257.00;;;34.60
68510;BMP180;55512;50.102;19.958;2023-08-21T13:50:14;99258.60;;;34.80
68510;BMP180;55512;50.102;19.958;2023-08-21T13:52:41;99257.40;;;34.90
68510;BMP180;55512;50.102;19.958;2023-08-21T13:55:08;99251.40;;;35.00
68510;BMP180;55512;50.102;19.958;2023-08-21T13:57:35;99246.60;;;35.00
68510;BMP180;55512;50.102;19.958;2023-08-21T14:00:03;99244.20;;;35.20
68510;BMP180;55512;50.102;19.958;2023-08-21T14:02:33;99243.80;;;35.40